sensor_id;sensor_type;location;lat;lon;timestamp;P1;durP1;ratioP1;P2;durP2;ratioP2
12433;SDS011;6281;49.038;8.372;2023-07-02T00:02:23;3.50;;;3.20;;
12433;SDS011;6281;49.038;8.372;2023-07-02T00:04:50;4.07;;;2.87;;
12433;SDS011;6281;49.038;8.372;2023-07-02T00:07:17;3.23;;;2.67;;
12433;SDS011;6281;49.038;8.372;2023-07-02T00:09:44;4.30;;;2.97;;
12433;SDS011;6281;49.038;8.372;2023-07-02T00:12:11;3.90;;;2.93;;
12433;SDS011;6281;49.038;8.372;2023-07-02T00:14:38;2.97;;;2.50;;
12433;SDS011;6281;49.038;8.372;2023-07-02T00:17:06;3.20;;;2.50;;
12433;SDS011;6281;49.038;8.372;2023-07-02T00:19:33;3.30;;;2.87;;
12433;SDS011;6281;49.038;8.372;2023-07-02T00:22:00;4.17;;;2.87;;
12433;SDS011;6281;49.038;8.372;2023-07-02T00:24:27;4.00;;;2.80;;
12433;SDS011;6281;49.038;8.372;2023-07-02T00:26:54;6.07;;;3.07;;
12433;SDS011;6281;49.038;8.372;2023-07-02T00:29:21;3.03;;;2.60;;
12433;SDS011;6281;49.038;8.372;2023-07-02T00:31:48;3.67;;;2.80;;
12433;SDS011;6281;49.038;8.372;2023-07-02T00:34:17;2.73;;;2.23;;
12433;SDS011;6281;49.038;8.372;2023-07-02T00:36:44;4.43;;;2.80;;
12433;SDS011;6281;49.038;8.372;2023-07-02T00:39:12;3.83;;;2.70;;
12433;SDS011;6281;49.038;8.372;2023-07-02T00:41:38;2.77;;;2.33;;
12433;SDS011;6281;49.038;8.372;2023-07-02T00:44:13;3.33;;;2.50;;
12433;SDS011;6281;49.038;8.372;2023-07-02T00:46:40;3.50;;;2.60;;
12433;SDS011;6281;49.038;8.372;2023-07-02T00:49:07;3.33;;;2.80;;
12433;SDS011;6281;49.038;8.372;2023-07-02T00:51:37;3.63;;;2.67;;
12433;SDS011;6281;49.038;8.372;2023-07-02T00:54:04;2.50;;;2.23;;
12433;SDS011;6281;49.038;8.372;2023-07-02T00:56:31;3.37;;;2.50;;
12433;SDS011;6281;49.038;8.372;2023-07-02T00:58:57;3.43;;;2.70;;
12433;SDS011;6281;49.038;8.372;2023-07-02T01:01:26;3.43;;;2.43;;
12433;SDS011;6281;49.038;8.372;2023-07-02T01:03:56;2.63;;;2.30;;
12433;SDS011;6281;49.038;8.372;2023-07-02T01:06:24;2.90;;;2.03;;
12433;SDS011;6281;49.038;8.372;2023-07-02T01:08:55;2.93;;;2.30;;
12433;SDS011;6281;49.038;8.372;2023-07-02T01:11:24;2.70;;;2.40;;
12433;SDS011;6281;49.038;8.372;2023-07-02T01:27:33;3.80;;;2.17;;
12433;SDS011;6281;49.038;8.372;2023-07-02T01:30:03;2.27;;;2.07;;
12433;SDS011;6281;49.038;8.372;2023-07-02T01:32:32;2.77;;;2.33;;
12433;SDS011;6281;49.038;8.372;2023-07-02T01:34:58;3.00;;;2.30;;
12433;SDS011;6281;49.038;8.372;2023-07-02T01:37:26;2.33;;;1.93;;
12433;SDS011;6281;49.038;8.372;2023-07-02T01:39:53;2.60;;;2.10;;
12433;SDS011;6281;49.038;8.372;2023-07-02T01:42:20;2.77;;;2.27;;
12433;SDS011;6281;49.038;8.372;2023-07-02T01:44:50;3.80;;;2.40;;
12433;SDS011;6281;49.038;8.372;2023-07-02T01:47:17;3.30;;;2.80;;
12433;SDS011;6281;49.038;8.372;2023-07-02T01:49:45;2.57;;;2.30;;
12433;SDS011;6281;49.038;8.372;2023-07-02T01:52:12;2.37;;;2.17;;
12433;SDS011;6281;49.038;8.372;2023-07-02T01:54:38;2.00;;;1.80;;
12433;SDS011;6281;49.038;8.372;2023-07-02T01:57:05;2.70;;;1.87;;
12433;SDS011;6281;49.038;8.372;2023-07-02T01:59:32;5.13;;;2.23;;
12433;SDS011;6281;49.038;8.372;2023-07-02T02:02:01;2.73;;;1.90;;
12433;SDS011;6281;49.038;8.372;2023-07-02T02:04:28;3.17;;;2.20;;
12433;SDS011;6281;49.038;8.372;2023-07-02T02:06:55;4.20;;;2.03;;
12433;SDS011;6281;49.038;8.372;2023-07-02T02:09:22;3.00;;;2.20;;
12433;SDS011;6281;49.038;8.372;2023-07-02T02:11:49;3.63;;;2.27;;
12433;SDS011;6281;49.038;8.372;2023-07-02T02:14:17;2.93;;;2.07;;
12433;SDS011;6281;49.038;8.372;2023-07-02T02:16:44;4.60;;;2.37;;
12433;SDS011;6281;49.038;8.372;2023-07-02T02:19:13;2.87;;;2.03;;
12433;SDS011;6281;49.038;8.372;2023-07-02T02:21:40;4.30;;;2.10;;
12433;SDS011;6281;49.038;8.372;2023-07-02T02:24:07;2.73;;;1.90;;
12433;SDS011;6281;49.038;8.372;2023-07-02T02:26:34;4.23;;;2.10;;
12433;SDS011;6281;49.038;8.372;2023-07-02T02:29:01;2.67;;;2.13;;
12433;SDS011;6281;49.038;8.372;2023-07-02T02:31:28;3.97;;;1.87;;
12433;SDS011;6281;49.038;8.372;2023-07-02T02:33:56;2.80;;;1.87;;
12433;SDS011;6281;49.038;8.372;2023-07-02T02:36:24;4.73;;;2.00;;
12433;SDS011;6281;49.038;8.372;2023-07-02T02:38:51;2.90;;;1.93;;
12433;SDS011;6281;49.038;8.372;2023-07-02T02:41:18;2.80;;;2.03;;
12433;SDS011;6281;49.038;8.372;2023-07-02T02:43:45;2.47;;;1.90;;
12433;SDS011;6281;49.038;8.372;2023-07-02T02:46:12;2.90;;;2.10;;
12433;SDS011;6281;49.038;8.372;2023-07-02T02:48:39;6.67;;;2.17;;
12433;SDS011;6281;49.038;8.372;2023-07-02T02:51:06;4.60;;;2.27;;
12433;SDS011;6281;49.038;8.372;2023-07-02T02:53:34;3.17;;;1.80;;
12433;SDS011;6281;49.038;8.372;2023-07-02T02:56:01;2.80;;;2.00;;
12433;SDS011;6281;49.038;8.372;2023-07-02T02:58:28;2.83;;;1.80;;
12433;SDS011;6281;49.038;8.372;2023-07-02T03:00:55;3.20;;;2.30;;
12433;SDS011;6281;49.038;8.372;2023-07-02T03:03:22;3.47;;;2.13;;
12433;SDS011;6281;49.038;8.372;2023-07-02T03:05:49;3.90;;;2.17;;
12433;SDS011;6281;49.038;8.372;2023-07-02T03:08:16;2.63;;;1.90;;
12433;SDS011;6281;49.038;8.372;2023-07-02T03:10:44;6.37;;;2.23;;
12433;SDS011;6281;49.038;8.372;2023-07-02T03:13:11;2.17;;;1.90;;
12433;SDS011;6281;49.038;8.372;2023-07-02T03:15:38;2.30;;;2.00;;
12433;SDS011;6281;49.038;8.372;2023-07-02T03:18:05;2.13;;;1.83;;
12433;SDS011;6281;49.038;8.372;2023-07-02T03:20:32;2.83;;;1.90;;
12433;SDS011;6281;49.038;8.372;2023-07-02T03:22:59;4.40;;;2.27;;
12433;SDS011;6281;49.038;8.372;2023-07-02T03:25:26;4.43;;;2.33;;
12433;SDS011;6281;49.038;8.372;2023-07-02T03:27:54;3.43;;;2.10;;
12433;SDS011;6281;49.038;8.372;2023-07-02T03:30:21;3.07;;;2.17;;
12433;SDS011;6281;49.038;8.372;2023-07-02T03:32:47;3.43;;;1.97;;
12433;SDS011;6281;49.038;8.372;2023-07-02T03:35:14;2.93;;;1.73;;
12433;SDS011;6281;49.038;8.372;2023-07-02T03:37:41;2.53;;;1.70;;
12433;SDS011;6281;49.038;8.372;2023-07-02T03:40:09;2.30;;;1.83;;
12433;SDS011;6281;49.038;8.372;2023-07-02T03:42:36;4.00;;;2.20;;
12433;SDS011;6281;49.038;8.372;2023-07-02T03:45:04;2.63;;;1.90;;
12433;SDS011;6281;49.038;8.372;2023-07-02T03:47:32;4.63;;;2.30;;
12433;SDS011;6281;49.038;8.372;2023-07-02T03:49:59;2.97;;;2.20;;
12433;SDS011;6281;49.038;8.372;2023-07-02T03:52:25;3.90;;;1.93;;
12433;SDS011;6281;49.038;8.372;2023-07-02T03:54:52;10.67;;;2.60;;
12433;SDS011;6281;49.038;8.372;2023-07-02T03:57:19;4.00;;;2.10;;
12433;SDS011;6281;49.038;8.372;2023-07-02T03:59:46;2.60;;;1.90;;
12433;SDS011;6281;49.038;8.372;2023-07-02T04:02:15;4.30;;;2.30;;
12433;SDS011;6281;49.038;8.372;2023-07-02T04:04:41;3.30;;;2.10;;
12433;SDS011;6281;49.038;8.372;2023-07-02T04:07:08;3.10;;;2.27;;
12433;SDS011;6281;49.038;8.372;2023-07-02T04:09:35;5.57;;;2.23;;
12433;SDS011;6281;49.038;8.372;2023-07-02T04:12:03;3.00;;;2.37;;
12433;SDS011;6281;49.038;8.372;2023-07-02T04:14:31;4.40;;;2.27;;
12433;SDS011;6281;49.038;8.372;2023-07-02T04:16:58;8.53;;;2.47;;
12433;SDS011;6281;49.038;8.372;2023-07-02T04:19:26;4.00;;;2.27;;
12433;SDS011;6281;49.038;8.372;2023-07-02T04:21:53;4.87;;;2.80;;
12433;SDS011;6281;49.038;8.372;2023-07-02T04:24:20;3.97;;;2.70;;
12433;SDS011;6281;49.038;8.372;2023-07-02T04:26:47;6.90;;;2.83;;
12433;SDS011;6281;49.038;8.372;2023-07-02T04:29:13;7.90;;;2.90;;
12433;SDS011;6281;49.038;8.372;2023-07-02T04:31:40;4.57;;;2.60;;
12433;SDS011;6281;49.038;8.372;2023-07-02T04:34:07;6.10;;;2.50;;
12433;SDS011;6281;49.038;8.372;2023-07-02T04:36:51;3.83;;;2.67;;
12433;SDS011;6281;49.038;8.372;2023-07-02T04:39:18;3.87;;;2.70;;
12433;SDS011;6281;49.038;8.372;2023-07-02T04:41:45;7.67;;;3.23;;
12433;SDS011;6281;49.038;8.372;2023-07-02T04:44:14;5.47;;;3.40;;
12433;SDS011;6281;49.038;8.372;2023-07-02T04:46:40;7.57;;;3.27;;
12433;SDS011;6281;49.038;8.372;2023-07-02T04:49:07;5.67;;;2.87;;
12433;SDS011;6281;49.038;8.372;2023-07-02T04:51:34;5.80;;;3.47;;
12433;SDS011;6281;49.038;8.372;2023-07-02T04:54:03;9.03;;;3.70;;
12433;SDS011;6281;49.038;8.372;2023-07-02T04:56:30;6.30;;;3.47;;
12433;SDS011;6281;49.038;8.372;2023-07-02T04:58:56;4.73;;;2.70;;
12433;SDS011;6281;49.038;8.372;2023-07-02T05:01:23;5.30;;;3.27;;
12433;SDS011;6281;49.038;8.372;2023-07-02T05:03:50;5.40;;;2.97;;
12433;SDS011;6281;49.038;8.372;2023-07-02T05:06:17;11.23;;;3.20;;
12433;SDS011;6281;49.038;8.372;2023-07-02T05:08:44;5.50;;;2.63;;
12433;SDS011;6281;49.038;8.372;2023-07-02T05:11:12;4.60;;;3.07;;
12433;SDS011;6281;49.038;8.372;2023-07-02T05:13:39;5.13;;;2.70;;
12433;SDS011;6281;49.038;8.372;2023-07-02T05:16:06;8.17;;;3.70;;
12433;SDS011;6281;49.038;8.372;2023-07-02T05:18:33;9.13;;;3.00;;
12433;SDS011;6281;49.038;8.372;2023-07-02T05:21:00;8.80;;;3.70;;
12433;SDS011;6281;49.038;8.372;2023-07-02T05:23:27;7.03;;;3.07;;
12433;SDS011;6281;49.038;8.372;2023-07-02T05:25:54;5.33;;;2.90;;
12433;SDS011;6281;49.038;8.372;2023-07-02T05:28:22;4.93;;;3.13;;
12433;SDS011;6281;49.038;8.372;2023-07-02T05:30:50;5.17;;;3.30;;
12433;SDS011;6281;49.038;8.372;2023-07-02T05:33:16;6.47;;;3.27;;
12433;SDS011;6281;49.038;8.372;2023-07-02T05:38:47;9.67;;;3.90;;
12433;SDS011;6281;49.038;8.372;2023-07-02T05:41:17;7.00;;;3.73;;
12433;SDS011;6281;49.038;8.372;2023-07-02T05:43:46;5.03;;;3.20;;
12433;SDS011;6281;49.038;8.372;2023-07-02T05:46:13;5.77;;;3.53;;
12433;SDS011;6281;49.038;8.372;2023-07-02T05:48:41;8.93;;;3.40;;
12433;SDS011;6281;49.038;8.372;2023-07-02T05:51:08;6.10;;;3.30;;
12433;SDS011;6281;49.038;8.372;2023-07-02T05:53:36;5.97;;;3.60;;
12433;SDS011;6281;49.038;8.372;2023-07-02T05:56:04;9.30;;;3.50;;
12433;SDS011;6281;49.038;8.372;2023-07-02T05:58:30;6.03;;;3.30;;
12433;SDS011;6281;49.038;8.372;2023-07-02T06:00:59;6.37;;;3.23;;
12433;SDS011;6281;49.038;8.372;2023-07-02T06:03:26;3.90;;;3.03;;
12433;SDS011;6281;49.038;8.372;2023-07-02T06:05:53;5.43;;;3.10;;
12433;SDS011;6281;49.038;8.372;2023-07-02T06:08:20;4.90;;;3.30;;
12433;SDS011;6281;49.038;8.372;2023-07-02T06:10:47;5.30;;;3.10;;
12433;SDS011;6281;49.038;8.372;2023-07-02T06:13:14;6.27;;;3.70;;
12433;SDS011;6281;49.038;8.372;2023-07-02T06:15:41;3.20;;;2.50;;
12433;SDS011;6281;49.038;8.372;2023-07-02T06:18:10;6.77;;;3.00;;
12433;SDS011;6281;49.038;8.372;2023-07-02T06:20:37;5.63;;;2.90;;
12433;SDS011;6281;49.038;8.372;2023-07-02T06:23:04;7.70;;;3.77;;
12433;SDS011;6281;49.038;8.372;2023-07-02T06:25:31;4.57;;;3.20;;
12433;SDS011;6281;49.038;8.372;2023-07-02T06:27:58;6.53;;;3.40;;
12433;SDS011;6281;49.038;8.372;2023-07-02T06:30:25;7.23;;;3.10;;
12433;SDS011;6281;49.038;8.372;2023-07-02T06:32:53;5.50;;;3.53;;
12433;SDS011;6281;49.038;8.372;2023-07-02T06:35:21;9.07;;;3.70;;
12433;SDS011;6281;49.038;8.372;2023-07-02T06:37:50;5.93;;;3.60;;
12433;SDS011;6281;49.038;8.372;2023-07-02T06:40:17;8.00;;;4.10;;
12433;SDS011;6281;49.038;8.372;2023-07-02T06:42:44;7.27;;;3.73;;
12433;SDS011;6281;49.038;8.372;2023-07-02T06:45:11;6.10;;;4.00;;
12433;SDS011;6281;49.038;8.372;2023-07-02T06:47:38;6.23;;;3.70;;
12433;SDS011;6281;49.038;8.372;2023-07-02T06:50:05;8.10;;;4.10;;
12433;SDS011;6281;49.038;8.372;2023-07-02T06:52:34;9.77;;;4.37;;
12433;SDS011;6281;49.038;8.372;2023-07-02T06:55:02;9.57;;;5.10;;
12433;SDS011;6281;49.038;8.372;2023-07-02T06:57:30;9.03;;;4.83;;
12433;SDS011;6281;49.038;8.372;2023-07-02T06:59:57;11.50;;;4.93;;
12433;SDS011;6281;49.038;8.372;2023-07-02T07:02:25;8.30;;;5.13;;
12433;SDS011;6281;49.038;8.372;2023-07-02T07:04:52;10.23;;;5.10;;
12433;SDS011;6281;49.038;8.372;2023-07-02T07:07:19;9.90;;;5.73;;
12433;SDS011;6281;49.038;8.372;2023-07-02T07:09:48;9.60;;;5.63;;
12433;SDS011;6281;49.038;8.372;2023-07-02T07:12:15;11.63;;;6.87;;
12433;SDS011;6281;49.038;8.372;2023-07-02T07:14:41;11.70;;;5.03;;
12433;SDS011;6281;49.038;8.372;2023-07-02T07:17:08;9.53;;;5.53;;
12433;SDS011;6281;49.038;8.372;2023-07-02T07:19:35;9.73;;;5.63;;
12433;SDS011;6281;49.038;8.372;2023-07-02T07:22:02;9.77;;;5.67;;
12433;SDS011;6281;49.038;8.372;2023-07-02T07:24:29;12.73;;;6.00;;
12433;SDS011;6281;49.038;8.372;2023-07-02T07:30:13;12.27;;;6.00;;
12433;SDS011;6281;49.038;8.372;2023-07-02T07:32:40;11.20;;;5.93;;
12433;SDS011;6281;49.038;8.372;2023-07-02T07:35:07;12.97;;;6.20;;
12433;SDS011;6281;49.038;8.372;2023-07-02T07:37:42;11.33;;;6.37;;
12433;SDS011;6281;49.038;8.372;2023-07-02T07:40:09;10.13;;;5.97;;
12433;SDS011;6281;49.038;8.372;2023-07-02T07:42:36;11.43;;;6.40;;
12433;SDS011;6281;49.038;8.372;2023-07-02T07:45:03;8.93;;;5.87;;
12433;SDS011;6281;49.038;8.372;2023-07-02T07:47:32;11.30;;;6.33;;
12433;SDS011;6281;49.038;8.372;2023-07-02T07:49:59;12.30;;;6.20;;
12433;SDS011;6281;49.038;8.372;2023-07-02T07:52:26;13.37;;;7.20;;
12433;SDS011;6281;49.038;8.372;2023-07-02T07:54:53;13.23;;;7.10;;
12433;SDS011;6281;49.038;8.372;2023-07-02T07:57:20;10.37;;;6.07;;
12433;SDS011;6281;49.038;8.372;2023-07-02T07:59:46;14.67;;;6.63;;
12433;SDS011;6281;49.038;8.372;2023-07-02T08:02:13;10.93;;;7.07;;
12433;SDS011;6281;49.038;8.372;2023-07-02T08:04:41;13.13;;;6.43;;
12433;SDS011;6281;49.038;8.372;2023-07-02T08:07:08;13.30;;;8.03;;
12433;SDS011;6281;49.038;8.372;2023-07-02T08:09:35;15.83;;;7.97;;
12433;SDS011;6281;49.038;8.372;2023-07-02T08:12:02;10.93;;;5.43;;
12433;SDS011;6281;49.038;8.372;2023-07-02T08:14:29;13.73;;;7.37;;
12433;SDS011;6281;49.038;8.372;2023-07-02T08:16:56;14.20;;;7.97;;
12433;SDS011;6281;49.038;8.372;2023-07-02T08:19:22;16.67;;;8.40;;
12433;SDS011;6281;49.038;8.372;2023-07-02T08:21:51;14.37;;;8.00;;
12433;SDS011;6281;49.038;8.372;2023-07-02T08:24:18;13.60;;;7.90;;
12433;SDS011;6281;49.038;8.372;2023-07-02T08:26:45;12.43;;;7.47;;
12433;SDS011;6281;49.038;8.372;2023-07-02T08:29:13;10.20;;;5.07;;
12433;SDS011;6281;49.038;8.372;2023-07-02T08:31:39;14.57;;;8.10;;
12433;SDS011;6281;49.038;8.372;2023-07-02T08:34:08;16.23;;;8.50;;
12433;SDS011;6281;49.038;8.372;2023-07-02T08:36:35;16.53;;;8.80;;
12433;SDS011;6281;49.038;8.372;2023-07-02T08:39:03;12.47;;;7.97;;
12433;SDS011;6281;49.038;8.372;2023-07-02T08:41:30;16.40;;;8.83;;
12433;SDS011;6281;49.038;8.372;2023-07-02T08:44:07;18.20;;;9.70;;
12433;SDS011;6281;49.038;8.372;2023-07-02T08:46:36;15.57;;;8.37;;
12433;SDS011;6281;49.038;8.372;2023-07-02T08:49:03;20.37;;;8.67;;
12433;SDS011;6281;49.038;8.372;2023-07-02T08:51:30;17.63;;;10.10;;
12433;SDS011;6281;49.038;8.372;2023-07-02T08:53:57;20.47;;;9.83;;
12433;SDS011;6281;49.038;8.372;2023-07-02T08:56:25;10.10;;;7.40;;
12433;SDS011;6281;49.038;8.372;2023-07-02T08:58:52;12.83;;;8.60;;
12433;SDS011;6281;49.038;8.372;2023-07-02T09:01:19;13.47;;;6.30;;
12433;SDS011;6281;49.038;8.372;2023-07-02T09:03:48;14.33;;;9.03;;
12433;SDS011;6281;49.038;8.372;2023-07-02T09:06:17;17.17;;;9.63;;
12433;SDS011;6281;49.038;8.372;2023-07-02T09:08:45;17.47;;;8.60;;
12433;SDS011;6281;49.038;8.372;2023-07-02T09:11:12;14.27;;;8.20;;
12433;SDS011;6281;49.038;8.372;2023-07-02T09:13:44;16.83;;;8.77;;
12433;SDS011;6281;49.038;8.372;2023-07-02T09:16:21;16.23;;;8.30;;
12433;SDS011;6281;49.038;8.372;2023-07-02T09:18:58;13.73;;;8.70;;
12433;SDS011;6281;49.038;8.372;2023-07-02T09:21:26;15.77;;;8.60;;
12433;SDS011;6281;49.038;8.372;2023-07-02T09:23:53;17.37;;;8.20;;
12433;SDS011;6281;49.038;8.372;2023-07-02T09:26:21;14.97;;;8.47;;
12433;SDS011;6281;49.038;8.372;2023-07-02T09:28:50;17.63;;;8.20;;
12433;SDS011;6281;49.038;8.372;2023-07-02T09:31:16;18.70;;;8.47;;
12433;SDS011;6281;49.038;8.372;2023-07-02T09:33:43;14.90;;;7.97;;
12433;SDS011;6281;49.038;8.372;2023-07-02T09:36:11;18.10;;;9.73;;
12433;SDS011;6281;49.038;8.372;2023-07-02T09:38:39;15.97;;;8.30;;
12433;SDS011;6281;49.038;8.372;2023-07-02T09:41:06;16.80;;;9.20;;
12433;SDS011;6281;49.038;8.372;2023-07-02T09:43:33;17.60;;;9.13;;
12433;SDS011;6281;49.038;8.372;2023-07-02T09:46:03;12.43;;;7.93;;
12433;SDS011;6281;49.038;8.372;2023-07-02T09:48:32;15.57;;;8.00;;
12433;SDS011;6281;49.038;8.372;2023-07-02T09:51:01;17.70;;;9.53;;
12433;SDS011;6281;49.038;8.372;2023-07-02T09:53:29;16.77;;;9.90;;
12433;SDS011;6281;49.038;8.372;2023-07-02T09:55:57;15.80;;;9.03;;
12433;SDS011;6281;49.038;8.372;2023-07-02T09:58:24;15.80;;;8.77;;
12433;SDS011;6281;49.038;8.372;2023-07-02T10:00:51;16.77;;;8.53;;
12433;SDS011;6281;49.038;8.372;2023-07-02T10:03:28;16.43;;;9.47;;
12433;SDS011;6281;49.038;8.372;2023-07-02T10:06:02;15.63;;;9.07;;
12433;SDS011;6281;49.038;8.372;2023-07-02T10:08:30;13.60;;;8.07;;
12433;SDS011;6281;49.038;8.372;2023-07-02T10:11:06;15.53;;;8.60;;
12433;SDS011;6281;49.038;8.372;2023-07-02T10:13:36;13.17;;;8.13;;
12433;SDS011;6281;49.038;8.372;2023-07-02T10:16:04;15.80;;;8.83;;
12433;SDS011;6281;49.038;8.372;2023-07-02T10:18:33;17.37;;;9.43;;
12433;SDS011;6281;49.038;8.372;2023-07-02T10:21:00;15.30;;;9.13;;
12433;SDS011;6281;49.038;8.372;2023-07-02T10:23:39;19.87;;;9.83;;
12433;SDS011;6281;49.038;8.372;2023-07-02T10:26:09;16.20;;;8.27;;
12433;SDS011;6281;49.038;8.372;2023-07-02T10:28:37;20.23;;;9.50;;
12433;SDS011;6281;49.038;8.372;2023-07-02T10:31:04;15.70;;;9.60;;
12433;SDS011;6281;49.038;8.372;2023-07-02T10:33:31;16.40;;;9.23;;
12433;SDS011;6281;49.038;8.372;2023-07-02T10:35:59;17.70;;;9.63;;
12433;SDS011;6281;49.038;8.372;2023-07-02T10:38:26;18.80;;;9.53;;
12433;SDS011;6281;49.038;8.372;2023-07-02T10:40:56;13.73;;;7.80;;
12433;SDS011;6281;49.038;8.372;2023-07-02T10:43:24;18.07;;;8.70;;
12433;SDS011;6281;49.038;8.372;2023-07-02T10:45:52;15.27;;;9.23;;
12433;SDS011;6281;49.038;8.372;2023-07-02T10:48:19;17.03;;;8.43;;
12433;SDS011;6281;49.038;8.372;2023-07-02T10:50:47;17.53;;;9.17;;
12433;SDS011;6281;49.038;8.372;2023-07-02T10:53:19;15.23;;;8.90;;
12433;SDS011;6281;49.038;8.372;2023-07-02T10:55:53;14.13;;;8.10;;
12433;SDS011;6281;49.038;8.372;2023-07-02T10:58:21;15.17;;;9.10;;
12433;SDS011;6281;49.038;8.372;2023-07-02T11:00:48;20.60;;;9.10;;
12433;SDS011;6281;49.038;8.372;2023-07-02T11:03:16;18.70;;;9.37;;
12433;SDS011;6281;49.038;8.372;2023-07-02T11:05:44;14.23;;;9.03;;
12433;SDS011;6281;49.038;8.372;2023-07-02T11:08:12;16.63;;;9.07;;
12433;SDS011;6281;49.038;8.372;2023-07-02T11:10:40;17.17;;;9.47;;
12433;SDS011;6281;49.038;8.372;2023-07-02T11:13:11;14.80;;;9.10;;
12433;SDS011;6281;49.038;8.372;2023-07-02T11:15:38;17.47;;;8.67;;
12433;SDS011;6281;49.038;8.372;2023-07-02T11:18:09;17.57;;;9.20;;
12433;SDS011;6281;49.038;8.372;2023-07-02T11:20:37;14.43;;;9.13;;
12433;SDS011;6281;49.038;8.372;2023-07-02T11:23:05;15.17;;;9.50;;
12433;SDS011;6281;49.038;8.372;2023-07-02T11:25:55;18.50;;;9.40;;
12433;SDS011;6281;49.038;8.372;2023-07-02T11:28:23;14.57;;;9.00;;
12433;SDS011;6281;49.038;8.372;2023-07-02T11:30:50;19.63;;;10.27;;
12433;SDS011;6281;49.038;8.372;2023-07-02T11:33:17;16.13;;;9.30;;
12433;SDS011;6281;49.038;8.372;2023-07-02T11:35:44;15.60;;;9.50;;
12433;SDS011;6281;49.038;8.372;2023-07-02T11:38:11;15.50;;;9.00;;
12433;SDS011;6281;49.038;8.372;2023-07-02T11:40:41;15.87;;;9.80;;
12433;SDS011;6281;49.038;8.372;2023-07-02T11:43:09;15.37;;;8.13;;
12433;SDS011;6281;49.038;8.372;2023-07-02T11:45:36;18.03;;;9.40;;
12433;SDS011;6281;49.038;8.372;2023-07-02T11:48:02;17.33;;;8.98;;
12433;SDS011;6281;49.038;8.372;2023-07-02T11:50:29;16.83;;;9.65;;
12433;SDS011;6281;49.038;8.372;2023-07-02T11:52:56;19.33;;;10.35;;
12433;SDS011;6281;49.038;8.372;2023-07-02T11:55:23;16.58;;;9.45;;
12433;SDS011;6281;49.038;8.372;2023-07-02T11:57:50;14.13;;;9.50;;
12433;SDS011;6281;49.038;8.372;2023-07-02T12:00:18;17.37;;;9.67;;
12433;SDS011;6281;49.038;8.372;2023-07-02T12:02:45;17.53;;;9.63;;
12433;SDS011;6281;49.038;8.372;2023-07-02T12:05:12;14.17;;;9.17;;
12433;SDS011;6281;49.038;8.372;2023-07-02T12:07:39;17.43;;;10.47;;
12433;SDS011;6281;49.038;8.372;2023-07-02T12:10:07;16.15;;;9.23;;
12433;SDS011;6281;49.038;8.372;2023-07-02T12:12:34;18.10;;;9.60;;
12433;SDS011;6281;49.038;8.372;2023-07-02T12:15:03;14.02;;;8.85;;
12433;SDS011;6281;49.038;8.372;2023-07-02T12:17:32;15.77;;;8.23;;
12433;SDS011;6281;49.038;8.372;2023-07-02T12:19:59;14.57;;;8.80;;
12433;SDS011;6281;49.038;8.372;2023-07-02T12:22:26;15.30;;;9.03;;
12433;SDS011;6281;49.038;8.372;2023-07-02T12:24:53;15.20;;;9.50;;
12433;SDS011;6281;49.038;8.372;2023-07-02T12:27:21;17.03;;;9.57;;
12433;SDS011;6281;49.038;8.372;2023-07-02T12:29:50;15.50;;;9.33;;
12433;SDS011;6281;49.038;8.372;2023-07-02T12:32:17;14.77;;;9.43;;
12433;SDS011;6281;49.038;8.372;2023-07-02T12:34:45;16.03;;;10.10;;
12433;SDS011;6281;49.038;8.372;2023-07-02T12:37:12;17.77;;;10.30;;
12433;SDS011;6281;49.038;8.372;2023-07-02T12:39:42;15.93;;;8.83;;
12433;SDS011;6281;49.038;8.372;2023-07-02T12:42:09;15.67;;;9.43;;
12433;SDS011;6281;49.038;8.372;2023-07-02T12:44:36;16.53;;;9.70;;
12433;SDS011;6281;49.038;8.372;2023-07-02T12:47:03;16.63;;;9.03;;
12433;SDS011;6281;49.038;8.372;2023-07-02T12:49:31;16.40;;;9.00;;
12433;SDS011;6281;49.038;8.372;2023-07-02T12:51:59;17.30;;;9.00;;
12433;SDS011;6281;49.038;8.372;2023-07-02T12:54:26;16.17;;;9.30;;
12433;SDS011;6281;49.038;8.372;2023-07-02T12:56:53;15.50;;;8.57;;
12433;SDS011;6281;49.038;8.372;2023-07-02T12:59:20;15.50;;;8.30;;
12433;SDS011;6281;49.038;8.372;2023-07-02T13:01:46;15.45;;;9.55;;
12433;SDS011;6281;49.038;8.372;2023-07-02T13:04:13;16.80;;;9.43;;
12433;SDS011;6281;49.038;8.372;2023-07-02T13:06:40;13.45;;;7.88;;
12433;SDS011;6281;49.038;8.372;2023-07-02T13:09:11;13.25;;;7.90;;
12433;SDS011;6281;49.038;8.372;2023-07-02T13:11:38;14.73;;;8.88;;
12433;SDS011;6281;49.038;8.372;2023-07-02T13:14:05;12.13;;;7.72;;
12433;SDS011;6281;49.038;8.372;2023-07-02T13:16:33;15.27;;;8.70;;
12433;SDS011;6281;49.038;8.372;2023-07-02T13:18:59;11.07;;;7.40;;
12433;SDS011;6281;49.038;8.372;2023-07-02T13:21:27;13.57;;;8.38;;
12433;SDS011;6281;49.038;8.372;2023-07-02T13:23:54;15.70;;;9.02;;
12433;SDS011;6281;49.038;8.372;2023-07-02T13:26:22;14.75;;;8.73;;
12433;SDS011;6281;49.038;8.372;2023-07-02T13:28:49;13.32;;;7.00;;
12433;SDS011;6281;49.038;8.372;2023-07-02T13:31:17;13.10;;;8.55;;
12433;SDS011;6281;49.038;8.372;2023-07-02T13:33:44;14.93;;;8.15;;
12433;SDS011;6281;49.038;8.372;2023-07-02T13:36:11;13.10;;;8.07;;
12433;SDS011;6281;49.038;8.372;2023-07-02T13:38:44;12.35;;;7.65;;
12433;SDS011;6281;49.038;8.372;2023-07-02T13:41:11;13.85;;;8.15;;
12433;SDS011;6281;49.038;8.372;2023-07-02T13:43:39;15.52;;;9.15;;
12433;SDS011;6281;49.038;8.372;2023-07-02T13:46:06;16.23;;;8.52;;
12433;SDS011;6281;49.038;8.372;2023-07-02T13:48:33;16.38;;;7.35;;
12433;SDS011;6281;49.038;8.372;2023-07-02T13:51:00;11.77;;;7.78;;
12433;SDS011;6281;49.038;8.372;2023-07-02T13:53:33;12.30;;;8.02;;
12433;SDS011;6281;49.038;8.372;2023-07-02T13:56:01;13.15;;;7.82;;
12433;SDS011;6281;49.038;8.372;2023-07-02T14:01:24;13.95;;;8.15;;
12433;SDS011;6281;49.038;8.372;2023-07-02T14:03:51;14.18;;;8.07;;
12433;SDS011;6281;49.038;8.372;2023-07-02T14:06:19;15.45;;;8.60;;
12433;SDS011;6281;49.038;8.372;2023-07-02T14:08:46;15.57;;;8.70;;
12433;SDS011;6281;49.038;8.372;2023-07-02T14:11:13;11.45;;;6.88;;
12433;SDS011;6281;49.038;8.372;2023-07-02T14:13:40;15.43;;;8.20;;
12433;SDS011;6281;49.038;8.372;2023-07-02T14:16:08;14.30;;;8.25;;
12433;SDS011;6281;49.038;8.372;2023-07-02T14:18:35;13.05;;;8.10;;
12433;SDS011;6281;49.038;8.372;2023-07-02T14:21:02;13.63;;;8.95;;
12433;SDS011;6281;49.038;8.372;2023-07-02T14:23:29;14.32;;;8.23;;
12433;SDS011;6281;49.038;8.372;2023-07-02T14:25:56;12.77;;;8.10;;
12433;SDS011;6281;49.038;8.372;2023-07-02T14:28:23;12.00;;;7.50;;
12433;SDS011;6281;49.038;8.372;2023-07-02T14:30:57;13.40;;;8.20;;
12433;SDS011;6281;49.038;8.372;2023-07-02T14:33:27;12.52;;;8.02;;
12433;SDS011;6281;49.038;8.372;2023-07-02T14:35:55;14.52;;;8.52;;
12433;SDS011;6281;49.038;8.372;2023-07-02T14:38:23;13.45;;;8.70;;
12433;SDS011;6281;49.038;8.372;2023-07-02T14:40:50;15.73;;;7.97;;
12433;SDS011;6281;49.038;8.372;2023-07-02T14:43:18;11.35;;;7.45;;
12433;SDS011;6281;49.038;8.372;2023-07-02T14:45:47;12.55;;;7.40;;
12433;SDS011;6281;49.038;8.372;2023-07-02T14:48:15;15.23;;;8.63;;
12433;SDS011;6281;49.038;8.372;2023-07-02T14:50:44;13.38;;;7.90;;
12433;SDS011;6281;49.038;8.372;2023-07-02T14:55:53;12.73;;;7.65;;
12433;SDS011;6281;49.038;8.372;2023-07-02T14:58:21;12.25;;;7.13;;
12433;SDS011;6281;49.038;8.372;2023-07-02T15:00:49;14.27;;;7.75;;
12433;SDS011;6281;49.038;8.372;2023-07-02T15:03:17;12.93;;;7.72;;
12433;SDS011;6281;49.038;8.372;2023-07-02T15:05:48;13.00;;;7.47;;
12433;SDS011;6281;49.038;8.372;2023-07-02T15:08:16;13.23;;;7.88;;
12433;SDS011;6281;49.038;8.372;2023-07-02T15:10:45;12.80;;;7.75;;
12433;SDS011;6281;49.038;8.372;2023-07-02T15:13:13;13.27;;;7.43;;
12433;SDS011;6281;49.038;8.372;2023-07-02T15:15:41;11.75;;;7.55;;
12433;SDS011;6281;49.038;8.372;2023-07-02T15:18:09;13.70;;;7.93;;
12433;SDS011;6281;49.038;8.372;2023-07-02T15:20:37;16.67;;;7.72;;
12433;SDS011;6281;49.038;8.372;2023-07-02T15:23:05;20.95;;;7.68;;